createdAt,value
2018-06-11T00:03:19.372Z,17.80
2018-06-11T00:08:10.263Z,17.80
2018-06-11T00:13:01.211Z,17.80
2018-06-11T00:17:59.354Z,17.70
2018-06-11T00:22:50.318Z,17.70
2018-06-11T00:27:41.214Z,17.60
2018-06-11T00:32:32.096Z,17.60
2018-06-11T00:37:23.788Z,17.60
2018-06-11T00:42:14.672Z,17.50
2018-06-11T00:47:05.552Z,17.50
2018-06-11T00:51:56.445Z,17.50
2018-06-11T00:56:47.352Z,17.50
2018-06-11T01:01:38.250Z,17.40
2018-06-11T01:06:29.139Z,17.40
2018-06-11T01:11:20.820Z,17.40
2018-06-11T01:16:11.724Z,17.30
2018-06-11T01:21:02.676Z,17.30
2018-06-11T01:25:53.568Z,17.30
2018-06-11T01:30:44.485Z,17.20
2018-06-11T01:35:35.367Z,17.20
2018-06-11T01:40:27.023Z,17.10
2018-06-11T01:45:17.931Z,17.10
2018-06-11T01:50:08.830Z,17.10
2018-06-11T01:55:00.460Z,17.10
2018-06-11T01:59:51.463Z,17.00
2018-06-11T02:04:42.452Z,17.00
2018-06-11T02:09:33.380Z,17.00
2018-06-11T02:14:24.265Z,17.00
2018-06-11T02:19:15.189Z,17.00
2018-06-11T02:24:06.132Z,17.00
2018-06-11T02:28:57.015Z,17.00
2018-06-11T02:33:47.900Z,17.00
2018-06-11T02:38:38.909Z,16.90
2018-06-11T02:43:29.795Z,17.00
2018-06-11T02:48:20.732Z,17.00
2018-06-11T02:53:11.616Z,17.00
2018-06-11T02:58:02.560Z,17.00
2018-06-11T03:02:53.453Z,17.00
2018-06-11T03:07:44.340Z,17.00
2018-06-11T03:12:36.041Z,17.00
2018-06-11T03:17:26.958Z,17.00
2018-06-11T03:22:17.851Z,17.00
2018-06-11T03:27:08.735Z,17.10
2018-06-11T03:32:00.691Z,17.10
2018-06-11T03:36:51.588Z,17.10
2018-06-11T03:41:43.211Z,17.20
2018-06-11T03:46:34.876Z,17.20
2018-06-11T03:51:26.507Z,17.20
2018-06-11T03:56:18.196Z,17.20
2018-06-11T04:01:09.098Z,17.20
2018-06-11T04:06:00.067Z,17.20
2018-06-11T04:10:50.987Z,17.30
2018-06-11T04:15:41.856Z,17.30
2018-06-11T04:20:32.739Z,17.40
2018-06-11T04:25:24.416Z,17.40
2018-06-11T04:30:15.296Z,17.40
2018-06-11T04:35:07.004Z,17.50
2018-06-11T04:39:58.015Z,17.50
2018-06-11T04:44:48.932Z,17.50
2018-06-11T04:49:39.832Z,17.60
2018-06-11T04:54:30.708Z,17.60
2018-06-11T04:59:22.386Z,17.70
2018-06-11T05:04:13.284Z,17.70
2018-06-11T05:09:04.201Z,17.80
2018-06-11T05:13:55.094Z,17.80
2018-06-11T05:18:46.724Z,18.00
2018-06-11T05:23:38.346Z,18.00
2018-06-11T05:28:29.972Z,18.10
2018-06-11T05:33:20.856Z,18.00
2018-06-11T05:38:11.739Z,18.10
2018-06-11T05:43:03.368Z,18.20
2018-06-11T05:47:55.048Z,18.30
2018-06-11T05:52:45.968Z,18.20
2018-06-11T05:57:36.879Z,18.40
2018-06-11T06:02:27.811Z,18.50
2018-06-11T06:07:18.728Z,18.60
2018-06-11T06:12:09.612Z,18.70
2018-06-11T06:17:00.864Z,18.80
2018-06-11T06:21:51.743Z,19.00
2018-06-11T06:26:43.374Z,19.20
2018-06-11T06:31:35.090Z,19.30
2018-06-11T06:36:25.971Z,19.30
2018-06-11T06:41:17.104Z,19.50
2018-06-11T06:46:08.059Z,19.60
2018-06-11T06:50:59.047Z,19.70
2018-06-11T06:55:49.975Z,19.90
2018-06-11T07:00:40.856Z,20.00
2018-06-11T07:05:31.743Z,20.10
2018-06-11T07:10:23.368Z,20.40
2018-06-11T07:15:15.114Z,20.40
2018-06-11T07:20:06.750Z,20.60
2018-06-11T07:24:58.384Z,20.70
2018-06-11T07:29:50.008Z,20.90
2018-06-11T07:34:42.434Z,21.00
2018-06-11T07:39:33.343Z,21.00
2018-06-11T07:44:24.232Z,21.10
2018-06-11T07:49:15.110Z,21.10
2018-06-11T07:54:06.026Z,21.20
2018-06-11T07:58:56.909Z,21.20
2018-06-11T08:03:47.800Z,21.20
2018-06-11T08:08:38.706Z,21.20
2018-06-11T08:13:30.395Z,21.10
2018-06-11T08:18:21.244Z,21.10
2018-06-11T08:23:12.158Z,21.10
2018-06-11T08:28:03.039Z,21.10
2018-06-11T08:32:53.975Z,21.10
2018-06-11T08:37:44.880Z,21.10
2018-06-11T08:42:35.766Z,21.20
2018-06-11T08:47:26.693Z,21.30
2018-06-11T08:52:17.632Z,21.30
2018-06-11T08:57:08.530Z,21.50
2018-06-11T09:01:59.415Z,21.60
2018-06-11T09:06:51.119Z,21.80
2018-06-11T09:11:42.004Z,21.80
2018-06-11T09:16:32.939Z,21.90
2018-06-11T09:21:23.842Z,22.00
2018-06-11T09:26:14.762Z,22.10
2018-06-11T09:31:05.757Z,22.20
2018-06-11T09:35:56.608Z,22.30
2018-06-11T09:40:47.496Z,22.40
2018-06-11T09:45:39.120Z,22.50
2018-06-11T09:50:30.744Z,22.60
2018-06-11T09:55:21.646Z,22.60
2018-06-11T10:00:12.539Z,22.70
2018-06-11T10:05:03.439Z,22.70
2018-06-11T10:09:54.324Z,22.70
2018-06-11T10:14:46.093Z,22.80
2018-06-11T10:19:36.976Z,22.80
2018-06-11T10:24:28.603Z,22.80
2018-06-11T10:29:19.507Z,22.80
2018-06-11T10:34:10.419Z,22.90
2018-06-11T10:39:01.365Z,22.90
2018-06-11T10:43:52.257Z,22.90
2018-06-11T10:48:43.149Z,23.00
2018-06-11T10:53:34.036Z,23.10
2018-06-11T10:58:25.667Z,23.20
2018-06-11T11:03:17.298Z,23.40
2018-06-11T11:08:08.947Z,23.60
2018-06-11T11:12:59.840Z,23.50
2018-06-11T11:17:50.732Z,23.80
2018-06-11T11:22:41.636Z,24.10
2018-06-11T11:27:32.530Z,24.40
2018-06-11T11:32:23.452Z,24.70
2018-06-11T11:37:14.358Z,25.10
2018-06-11T11:42:05.247Z,25.50
2018-06-11T11:46:56.958Z,26.40
2018-06-11T11:51:47.845Z,26.40
2018-06-11T11:56:38.745Z,26.80
2018-06-11T12:01:29.650Z,27.30
2018-06-11T12:06:21.335Z,28.20
2018-06-11T12:11:12.223Z,28.10
2018-06-11T12:16:03.140Z,28.60
2018-06-11T12:20:54.106Z,29.10
2018-06-11T12:25:44.996Z,29.60
2018-06-11T12:30:35.897Z,30.00
2018-06-11T12:35:26.785Z,30.40
2018-06-11T12:40:17.764Z,30.80
2018-06-11T12:45:08.644Z,31.20
2018-06-11T12:49:59.536Z,31.50
2018-06-11T12:54:51.172Z,32.10
2018-06-11T12:59:42.056Z,32.00
2018-06-11T13:04:32.946Z,32.40
2018-06-11T13:09:23.833Z,32.60
2018-06-11T13:14:15.474Z,32.80
2018-06-11T13:19:07.099Z,32.90
2018-06-11T13:23:57.981Z,32.90
2018-06-11T13:28:48.891Z,33.00
2018-06-11T13:33:39.785Z,33.00
2018-06-11T13:38:30.686Z,33.10
2018-06-11T13:43:22.327Z,33.20
2018-06-11T13:48:13.957Z,33.20
2018-06-11T13:53:04.839Z,33.20
2018-06-11T13:57:55.722Z,33.20
2018-06-11T14:02:46.616Z,33.20
2018-06-11T14:07:38.263Z,33.20
2018-06-11T14:12:29.201Z,33.20
2018-06-11T14:17:20.084Z,33.20
2018-06-11T14:22:11.764Z,33.40
2018-06-11T14:27:02.657Z,33.30
2018-06-11T14:31:53.559Z,33.30
2018-06-11T14:36:44.451Z,33.30
2018-06-11T14:41:35.440Z,33.30
2018-06-11T14:46:26.320Z,33.30
2018-06-11T14:51:17.207Z,33.20
2018-06-11T14:56:08.087Z,33.10
2018-06-11T15:00:58.976Z,33.00
2018-06-11T15:05:49.867Z,32.90
2018-06-11T15:10:41.492Z,32.60
2018-06-11T15:15:32.514Z,32.60
2018-06-11T15:20:23.400Z,32.40
2018-06-11T15:25:14.321Z,32.20
2018-06-11T15:30:05.210Z,31.90
2018-06-11T15:34:56.110Z,31.70
2018-06-11T15:39:47.005Z,31.50
2018-06-11T15:44:37.889Z,31.20
2018-06-11T15:49:28.798Z,30.90
2018-06-11T15:54:19.701Z,30.60
2018-06-11T15:59:10.583Z,30.30
2018-06-11T16:04:01.469Z,30.10
2018-06-11T16:08:52.397Z,29.80
2018-06-11T16:13:43.316Z,29.60
2018-06-11T16:18:34.266Z,29.30
2018-06-11T16:23:25.116Z,29.00
2018-06-11T16:28:16.028Z,28.70
2018-06-11T16:33:06.915Z,28.50
2018-06-11T16:37:58.536Z,27.90
2018-06-11T16:42:49.420Z,27.90
2018-06-11T16:47:40.346Z,27.70
2018-06-11T16:52:31.343Z,27.40
2018-06-11T16:57:22.250Z,27.20
2018-06-11T17:02:13.136Z,27.00
2018-06-11T17:07:04.123Z,26.80
2018-06-11T17:11:55.036Z,26.60
2018-06-11T17:16:45.970Z,26.40
2018-06-11T17:21:36.876Z,26.20
2018-06-11T17:26:27.812Z,26.00
2018-06-11T17:31:18.699Z,25.90
2018-06-11T17:36:09.597Z,25.70
2018-06-11T17:41:00.562Z,25.50
2018-06-11T17:45:51.467Z,25.40
2018-06-11T17:50:42.430Z,25.20
2018-06-11T17:55:34.108Z,25.00
2018-06-11T18:00:26.902Z,24.90
2018-06-11T18:05:17.801Z,24.80
2018-06-11T18:10:08.712Z,24.60
2018-06-11T18:14:59.632Z,24.50
2018-06-11T18:19:50.574Z,24.40
2018-06-11T18:24:41.457Z,24.20
2018-06-11T18:29:32.544Z,24.10
2018-06-11T18:34:24.246Z,23.80
2018-06-11T18:39:15.167Z,23.70
2018-06-11T18:44:06.088Z,23.60
2018-06-11T18:48:56.994Z,23.50
2018-06-11T18:53:47.917Z,23.30
2018-06-11T18:58:38.843Z,23.20
2018-06-11T19:03:29.742Z,23.00
2018-06-11T19:08:20.656Z,22.80
2018-06-11T19:13:11.544Z,22.70
2018-06-11T19:18:02.436Z,22.50
2018-06-11T19:22:53.347Z,22.40
2018-06-11T19:27:45.056Z,22.10
2018-06-11T19:32:35.941Z,22.00
2018-06-11T19:37:26.827Z,21.90
2018-06-11T19:42:17.722Z,21.70
2018-06-11T19:47:08.624Z,21.60
2018-06-11T19:51:59.540Z,21.40
2018-06-11T19:56:50.461Z,21.20
2018-06-11T20:01:41.344Z,21.10
2018-06-11T20:06:32.231Z,20.90
2018-06-11T20:11:23.153Z,20.80
2018-06-11T20:16:14.182Z,20.70
2018-06-11T20:21:05.929Z,20.40
2018-06-11T20:25:57.639Z,20.30
2018-06-11T20:30:48.855Z,20.30
2018-06-11T20:35:39.773Z,20.20
2018-06-11T20:40:30.700Z,20.00
2018-06-11T20:45:21.601Z,19.90
2018-06-11T20:50:12.524Z,19.80
2018-06-11T20:55:03.524Z,19.70
2018-06-11T20:59:54.496Z,19.50
2018-06-11T21:04:45.384Z,19.40
2018-06-11T21:09:36.282Z,19.30
2018-06-11T21:14:27.215Z,19.20
2018-06-11T21:19:18.132Z,19.00
2018-06-11T21:24:09.091Z,18.90
2018-06-11T21:28:59.979Z,18.80
2018-06-11T21:33:50.906Z,18.80
2018-06-11T21:38:41.822Z,18.60
2018-06-11T21:43:32.727Z,18.50
2018-06-11T21:48:23.657Z,18.40
2018-06-11T21:53:14.955Z,18.40
2018-06-11T21:58:05.895Z,18.30
2018-06-11T22:02:56.838Z,18.20
2018-06-11T22:07:47.746Z,18.10
2018-06-11T22:12:38.658Z,18.00
2018-06-11T22:17:29.547Z,17.90
2018-06-11T22:22:20.483Z,17.80
2018-06-11T22:27:11.363Z,17.70
2018-06-11T22:32:03.055Z,17.50
2018-06-11T22:36:53.945Z,17.50
2018-06-11T22:41:44.840Z,17.40
2018-06-11T22:46:36.475Z,17.30
2018-06-11T22:51:28.103Z,17.20
2018-06-11T22:56:19.735Z,17.10
2018-06-11T23:01:11.437Z,17.00
2018-06-11T23:06:02.324Z,17.00
2018-06-11T23:10:53.261Z,16.90
2018-06-11T23:15:44.176Z,16.80
2018-06-11T23:20:35.064Z,16.70
2018-06-11T23:25:26.016Z,16.60
2018-06-11T23:30:16.968Z,16.60
2018-06-11T23:35:07.969Z,16.50
2018-06-11T23:39:58.887Z,16.40
2018-06-11T23:44:49.801Z,16.40
2018-06-11T23:49:40.687Z,16.30
2018-06-11T23:54:31.632Z,16.20
2018-06-11T23:59:22.512Z,16.20
